sensor_id;sensor_type;location;lat;lon;timestamp;P1;durP1;ratioP1;P2;durP2;ratioP2
9160;SDS011;4615;51.340;8.288;2022-12-28T00:00:24;7.30;;;2.92;;
9160;SDS011;4615;51.340;8.288;2022-12-28T00:02:50;8.02;;;3.42;;
9160;SDS011;4615;51.340;8.288;2022-12-28T00:05:18;5.20;;;2.80;;
9160;SDS011;4615;51.340;8.288;2022-12-28T00:07:44;6.80;;;3.10;;
9160;SDS011;4615;51.340;8.288;2022-12-28T00:10:11;6.63;;;2.80;;
9160;SDS011;4615;51.340;8.288;2022-12-28T00:12:37;6.20;;;2.92;;
9160;SDS011;4615;51.340;8.288;2022-12-28T00:15:04;6.30;;;2.80;;
9160;SDS011;4615;51.340;8.288;2022-12-28T00:17:30;5.80;;;3.00;;
9160;SDS011;4615;51.340;8.288;2022-12-28T00:19:57;5.10;;;2.97;;
9160;SDS011;4615;51.340;8.288;2022-12-28T00:22:24;5.82;;;3.10;;
9160;SDS011;4615;51.340;8.288;2022-12-28T00:24:51;7.43;;;3.40;;
9160;SDS011;4615;51.340;8.288;2022-12-28T00:27:18;6.53;;;3.00;;
9160;SDS011;4615;51.340;8.288;2022-12-28T00:29:44;6.53;;;3.00;;
9160;SDS011;4615;51.340;8.288;2022-12-28T00:32:11;6.57;;;3.15;;
9160;SDS011;4615;51.340;8.288;2022-12-28T00:34:37;5.13;;;2.80;;
9160;SDS011;4615;51.340;8.288;2022-12-28T00:37:03;7.25;;;2.95;;
9160;SDS011;4615;51.340;8.288;2022-12-28T00:39:31;6.13;;;3.00;;
9160;SDS011;4615;51.340;8.288;2022-12-28T00:41:57;5.53;;;3.17;;
9160;SDS011;4615;51.340;8.288;2022-12-28T00:44:24;5.20;;;2.95;;
9160;SDS011;4615;51.340;8.288;2022-12-28T00:46:50;6.07;;;3.05;;
9160;SDS011;4615;51.340;8.288;2022-12-28T00:49:17;6.55;;;3.15;;
9160;SDS011;4615;51.340;8.288;2022-12-28T00:51:43;4.88;;;2.90;;
9160;SDS011;4615;51.340;8.288;2022-12-28T00:54:09;6.10;;;3.13;;
9160;SDS011;4615;51.340;8.288;2022-12-28T00:56:38;6.63;;;3.10;;
9160;SDS011;4615;51.340;8.288;2022-12-28T00:59:05;5.55;;;2.90;;
9160;SDS011;4615;51.340;8.288;2022-12-28T01:01:31;6.43;;;3.13;;
9160;SDS011;4615;51.340;8.288;2022-12-28T01:03:57;4.55;;;2.75;;
9160;SDS011;4615;51.340;8.288;2022-12-28T01:06:24;4.93;;;2.90;;
9160;SDS011;4615;51.340;8.288;2022-12-28T01:08:51;7.13;;;2.80;;
9160;SDS011;4615;51.340;8.288;2022-12-28T01:11:18;7.25;;;3.00;;
9160;SDS011;4615;51.340;8.288;2022-12-28T01:13:46;6.37;;;2.80;;
9160;SDS011;4615;51.340;8.288;2022-12-28T01:16:14;5.80;;;3.17;;
9160;SDS011;4615;51.340;8.288;2022-12-28T01:18:41;6.03;;;2.95;;
9160;SDS011;4615;51.340;8.288;2022-12-28T01:21:08;4.93;;;3.00;;
9160;SDS011;4615;51.340;8.288;2022-12-28T01:23:35;4.72;;;3.08;;
9160;SDS011;4615;51.340;8.288;2022-12-28T01:26:01;5.37;;;3.17;;
9160;SDS011;4615;51.340;8.288;2022-12-28T01:28:28;4.80;;;2.97;;
9160;SDS011;4615;51.340;8.288;2022-12-28T01:30:56;4.78;;;3.00;;
9160;SDS011;4615;51.340;8.288;2022-12-28T01:33:22;7.13;;;3.20;;
9160;SDS011;4615;51.340;8.288;2022-12-28T01:35:49;5.97;;;2.92;;
9160;SDS011;4615;51.340;8.288;2022-12-28T01:38:15;4.90;;;2.80;;
9160;SDS011;4615;51.340;8.288;2022-12-28T01:40:41;4.53;;;3.03;;
9160;SDS011;4615;51.340;8.288;2022-12-28T01:43:09;6.05;;;2.90;;
9160;SDS011;4615;51.340;8.288;2022-12-28T01:45:37;5.55;;;3.10;;
9160;SDS011;4615;51.340;8.288;2022-12-28T01:48:06;4.53;;;2.80;;
9160;SDS011;4615;51.340;8.288;2022-12-28T01:50:33;5.93;;;3.03;;
9160;SDS011;4615;51.340;8.288;2022-12-28T01:53:00;4.85;;;2.65;;
9160;SDS011;4615;51.340;8.288;2022-12-28T01:55:28;7.50;;;3.13;;
9160;SDS011;4615;51.340;8.288;2022-12-28T01:57:56;5.50;;;2.88;;
9160;SDS011;4615;51.340;8.288;2022-12-28T02:00:25;5.38;;;2.83;;
9160;SDS011;4615;51.340;8.288;2022-12-28T02:02:52;4.85;;;2.85;;
9160;SDS011;4615;51.340;8.288;2022-12-28T02:05:22;6.20;;;3.03;;
9160;SDS011;4615;51.340;8.288;2022-12-28T02:07:51;5.35;;;2.80;;
9160;SDS011;4615;51.340;8.288;2022-12-28T02:10:19;5.03;;;3.10;;
9160;SDS011;4615;51.340;8.288;2022-12-28T02:12:45;4.82;;;2.83;;
9160;SDS011;4615;51.340;8.288;2022-12-28T02:15:12;5.15;;;2.80;;
9160;SDS011;4615;51.340;8.288;2022-12-28T02:17:38;5.10;;;2.70;;
9160;SDS011;4615;51.340;8.288;2022-12-28T02:20:05;5.38;;;2.92;;
9160;SDS011;4615;51.340;8.288;2022-12-28T02:22:46;4.88;;;3.10;;
9160;SDS011;4615;51.340;8.288;2022-12-28T02:28:08;5.53;;;2.90;;
9160;SDS011;4615;51.340;8.288;2022-12-28T02:30:42;4.05;;;2.72;;
9160;SDS011;4615;51.340;8.288;2022-12-28T02:33:15;3.80;;;2.60;;
9160;SDS011;4615;51.340;8.288;2022-12-28T02:35:43;3.35;;;2.72;;
9160;SDS011;4615;51.340;8.288;2022-12-28T02:38:13;4.15;;;2.70;;
9160;SDS011;4615;51.340;8.288;2022-12-28T02:40:42;4.38;;;2.70;;
9160;SDS011;4615;51.340;8.288;2022-12-28T02:43:10;4.22;;;2.75;;
9160;SDS011;4615;51.340;8.288;2022-12-28T02:45:38;3.90;;;2.60;;
9160;SDS011;4615;51.340;8.288;2022-12-28T02:48:23;4.32;;;2.70;;
9160;SDS011;4615;51.340;8.288;2022-12-28T02:51:14;4.28;;;2.58;;
9160;SDS011;4615;51.340;8.288;2022-12-28T02:53:47;3.88;;;2.72;;
9160;SDS011;4615;51.340;8.288;2022-12-28T02:56:23;3.75;;;2.60;;
9160;SDS011;4615;51.340;8.288;2022-12-28T02:58:56;4.60;;;2.63;;
9160;SDS011;4615;51.340;8.288;2022-12-28T03:01:28;5.10;;;2.90;;
9160;SDS011;4615;51.340;8.288;2022-12-28T03:04:01;4.60;;;2.72;;
9160;SDS011;4615;51.340;8.288;2022-12-28T03:06:32;5.05;;;2.80;;
9160;SDS011;4615;51.340;8.288;2022-12-28T03:09:19;3.90;;;2.60;;
9160;SDS011;4615;51.340;8.288;2022-12-28T03:11:47;3.95;;;2.63;;
9160;SDS011;4615;51.340;8.288;2022-12-28T03:14:16;3.90;;;2.58;;
9160;SDS011;4615;51.340;8.288;2022-12-28T03:16:44;3.53;;;2.50;;
9160;SDS011;4615;51.340;8.288;2022-12-28T03:19:30;3.67;;;2.65;;
9160;SDS011;4615;51.340;8.288;2022-12-28T03:22:15;4.10;;;2.70;;
9160;SDS011;4615;51.340;8.288;2022-12-28T03:25:01;4.63;;;2.67;;
9160;SDS011;4615;51.340;8.288;2022-12-28T03:27:46;5.97;;;2.83;;
9160;SDS011;4615;51.340;8.288;2022-12-28T03:30:31;3.83;;;2.75;;
9160;SDS011;4615;51.340;8.288;2022-12-28T03:33:16;3.38;;;2.58;;
9160;SDS011;4615;51.340;8.288;2022-12-28T03:35:45;3.40;;;2.40;;
9160;SDS011;4615;51.340;8.288;2022-12-28T03:38:13;3.45;;;2.72;;
9160;SDS011;4615;51.340;8.288;2022-12-28T03:40:51;3.55;;;2.85;;
9160;SDS011;4615;51.340;8.288;2022-12-28T03:43:21;4.70;;;2.90;;
9160;SDS011;4615;51.340;8.288;2022-12-28T03:46:07;4.35;;;2.70;;
9160;SDS011;4615;51.340;8.288;2022-12-28T03:48:35;3.95;;;2.60;;
9160;SDS011;4615;51.340;8.288;2022-12-28T03:51:03;3.33;;;2.73;;
9160;SDS011;4615;51.340;8.288;2022-12-28T03:53:34;4.28;;;2.70;;
9160;SDS011;4615;51.340;8.288;2022-12-28T03:56:08;3.20;;;2.60;;
9160;SDS011;4615;51.340;8.288;2022-12-28T03:58:35;2.65;;;2.45;;
9160;SDS011;4615;51.340;8.288;2022-12-28T04:01:01;2.63;;;2.40;;
9160;SDS011;4615;51.340;8.288;2022-12-28T04:03:28;3.50;;;2.47;;
9160;SDS011;4615;51.340;8.288;2022-12-28T04:05:54;4.32;;;2.42;;
9160;SDS011;4615;51.340;8.288;2022-12-28T04:08:22;3.90;;;2.63;;
9160;SDS011;4615;51.340;8.288;2022-12-28T04:10:48;3.40;;;2.50;;
9160;SDS011;4615;51.340;8.288;2022-12-28T04:13:15;3.47;;;2.70;;
9160;SDS011;4615;51.340;8.288;2022-12-28T04:15:41;2.92;;;2.42;;
9160;SDS011;4615;51.340;8.288;2022-12-28T04:18:08;3.97;;;2.40;;
9160;SDS011;4615;51.340;8.288;2022-12-28T04:20:34;4.25;;;2.83;;
9160;SDS011;4615;51.340;8.288;2022-12-28T04:23:00;3.92;;;2.60;;
9160;SDS011;4615;51.340;8.288;2022-12-28T04:25:28;3.60;;;2.63;;
9160;SDS011;4615;51.340;8.288;2022-12-28T04:27:54;3.45;;;2.78;;
9160;SDS011;4615;51.340;8.288;2022-12-28T04:30:21;3.80;;;2.65;;
9160;SDS011;4615;51.340;8.288;2022-12-28T04:32:47;4.40;;;2.70;;
9160;SDS011;4615;51.340;8.288;2022-12-28T04:35:14;3.10;;;2.53;;
9160;SDS011;4615;51.340;8.288;2022-12-28T04:37:40;3.60;;;2.50;;
9160;SDS011;4615;51.340;8.288;2022-12-28T04:40:07;3.72;;;2.95;;
9160;SDS011;4615;51.340;8.288;2022-12-28T04:42:35;3.60;;;2.63;;
9160;SDS011;4615;51.340;8.288;2022-12-28T04:45:01;3.90;;;2.65;;
9160;SDS011;4615;51.340;8.288;2022-12-28T04:47:27;2.92;;;2.65;;
9160;SDS011;4615;51.340;8.288;2022-12-28T04:49:54;4.45;;;2.70;;
9160;SDS011;4615;51.340;8.288;2022-12-28T04:52:20;3.25;;;2.63;;
9160;SDS011;4615;51.340;8.288;2022-12-28T04:54:47;2.70;;;2.47;;
9160;SDS011;4615;51.340;8.288;2022-12-28T04:57:13;2.60;;;2.40;;
9160;SDS011;4615;51.340;8.288;2022-12-28T04:59:41;3.15;;;2.42;;
9160;SDS011;4615;51.340;8.288;2022-12-28T05:02:07;4.30;;;2.55;;
9160;SDS011;4615;51.340;8.288;2022-12-28T05:04:34;3.37;;;2.43;;
9160;SDS011;4615;51.340;8.288;2022-12-28T05:07:00;3.83;;;2.70;;
9160;SDS011;4615;51.340;8.288;2022-12-28T05:09:26;2.67;;;2.25;;
9160;SDS011;4615;51.340;8.288;2022-12-28T05:11:53;3.17;;;2.30;;
9160;SDS011;4615;51.340;8.288;2022-12-28T05:14:19;2.80;;;2.58;;
9160;SDS011;4615;51.340;8.288;2022-12-28T05:16:47;4.20;;;2.40;;
9160;SDS011;4615;51.340;8.288;2022-12-28T05:19:15;2.95;;;2.40;;
9160;SDS011;4615;51.340;8.288;2022-12-28T05:21:41;3.10;;;2.40;;
9160;SDS011;4615;51.340;8.288;2022-12-28T05:24:07;3.05;;;2.45;;
9160;SDS011;4615;51.340;8.288;2022-12-28T05:26:34;3.30;;;2.38;;
9160;SDS011;4615;51.340;8.288;2022-12-28T05:29:00;3.30;;;2.40;;
9160;SDS011;4615;51.340;8.288;2022-12-28T05:31:27;3.63;;;2.40;;
9160;SDS011;4615;51.340;8.288;2022-12-28T05:33:54;3.95;;;2.40;;
9160;SDS011;4615;51.340;8.288;2022-12-28T05:36:21;2.80;;;2.30;;
9160;SDS011;4615;51.340;8.288;2022-12-28T05:38:48;2.47;;;2.28;;
9160;SDS011;4615;51.340;8.288;2022-12-28T05:41:15;3.17;;;2.38;;
9160;SDS011;4615;51.340;8.288;2022-12-28T05:43:42;3.28;;;2.40;;
9160;SDS011;4615;51.340;8.288;2022-12-28T05:46:09;2.78;;;2.25;;
9160;SDS011;4615;51.340;8.288;2022-12-28T05:48:37;2.83;;;2.25;;
9160;SDS011;4615;51.340;8.288;2022-12-28T05:51:06;3.83;;;2.50;;
9160;SDS011;4615;51.340;8.288;2022-12-28T05:53:33;3.58;;;2.25;;
9160;SDS011;4615;51.340;8.288;2022-12-28T05:56:01;3.13;;;2.20;;
9160;SDS011;4615;51.340;8.288;2022-12-28T05:58:27;3.03;;;2.37;;
9160;SDS011;4615;51.340;8.288;2022-12-28T06:01:01;2.67;;;2.20;;
9160;SDS011;4615;51.340;8.288;2022-12-28T06:03:27;2.67;;;2.22;;
9160;SDS011;4615;51.340;8.288;2022-12-28T06:05:54;3.20;;;2.05;;
9160;SDS011;4615;51.340;8.288;2022-12-28T06:08:21;2.60;;;2.27;;
9160;SDS011;4615;51.340;8.288;2022-12-28T06:10:48;2.92;;;2.28;;
9160;SDS011;4615;51.340;8.288;2022-12-28T06:13:14;2.50;;;2.13;;
9160;SDS011;4615;51.340;8.288;2022-12-28T06:15:41;2.78;;;2.20;;
9160;SDS011;4615;51.340;8.288;2022-12-28T06:18:07;3.08;;;2.20;;
9160;SDS011;4615;51.340;8.288;2022-12-28T06:20:33;2.58;;;1.90;;
9160;SDS011;4615;51.340;8.288;2022-12-28T06:23:00;2.50;;;1.77;;
9160;SDS011;4615;51.340;8.288;2022-12-28T06:25:27;2.45;;;1.90;;
9160;SDS011;4615;51.340;8.288;2022-12-28T06:27:54;2.70;;;1.98;;
9160;SDS011;4615;51.340;8.288;2022-12-28T06:30:20;2.38;;;2.05;;
9160;SDS011;4615;51.340;8.288;2022-12-28T06:32:47;3.03;;;1.80;;
9160;SDS011;4615;51.340;8.288;2022-12-28T06:35:13;2.00;;;1.80;;
9160;SDS011;4615;51.340;8.288;2022-12-28T06:37:39;2.28;;;1.70;;
9160;SDS011;4615;51.340;8.288;2022-12-28T06:40:06;2.65;;;1.90;;
9160;SDS011;4615;51.340;8.288;2022-12-28T06:42:34;2.43;;;1.80;;
9160;SDS011;4615;51.340;8.288;2022-12-28T06:45:00;2.10;;;1.90;;
9160;SDS011;4615;51.340;8.288;2022-12-28T06:47:27;1.75;;;1.65;;
9160;SDS011;4615;51.340;8.288;2022-12-28T06:49:53;2.08;;;1.73;;
9160;SDS011;4615;51.340;8.288;2022-12-28T06:52:19;3.67;;;2.03;;
9160;SDS011;4615;51.340;8.288;2022-12-28T06:54:46;2.45;;;2.00;;
9160;SDS011;4615;51.340;8.288;2022-12-28T06:57:12;1.80;;;1.70;;
9160;SDS011;4615;51.340;8.288;2022-12-28T06:59:40;2.63;;;1.97;;
9160;SDS011;4615;51.340;8.288;2022-12-28T07:02:07;2.30;;;1.90;;
9160;SDS011;4615;51.340;8.288;2022-12-28T07:04:34;2.15;;;1.90;;
9160;SDS011;4615;51.340;8.288;2022-12-28T07:07:00;2.40;;;1.80;;
9160;SDS011;4615;51.340;8.288;2022-12-28T07:09:27;2.00;;;1.90;;
9160;SDS011;4615;51.340;8.288;2022-12-28T07:11:53;2.38;;;1.85;;
9160;SDS011;4615;51.340;8.288;2022-12-28T07:14:19;2.40;;;1.75;;
9160;SDS011;4615;51.340;8.288;2022-12-28T07:16:47;3.20;;;2.00;;
9160;SDS011;4615;51.340;8.288;2022-12-28T07:19:14;2.07;;;1.87;;
9160;SDS011;4615;51.340;8.288;2022-12-28T07:21:40;2.33;;;1.70;;
9160;SDS011;4615;51.340;8.288;2022-12-28T07:24:07;2.05;;;1.85;;
9160;SDS011;4615;51.340;8.288;2022-12-28T07:26:34;4.07;;;1.90;;
9160;SDS011;4615;51.340;8.288;2022-12-28T07:29:01;1.95;;;1.80;;
9160;SDS011;4615;51.340;8.288;2022-12-28T07:31:28;2.40;;;1.90;;
9160;SDS011;4615;51.340;8.288;2022-12-28T07:33:57;3.20;;;1.90;;
9160;SDS011;4615;51.340;8.288;2022-12-28T07:36:24;2.00;;;1.77;;
9160;SDS011;4615;51.340;8.288;2022-12-28T07:38:50;2.28;;;1.75;;
9160;SDS011;4615;51.340;8.288;2022-12-28T07:41:18;2.45;;;1.75;;
9160;SDS011;4615;51.340;8.288;2022-12-28T07:43:45;1.92;;;1.67;;
9160;SDS011;4615;51.340;8.288;2022-12-28T07:46:12;1.95;;;1.60;;
9160;SDS011;4615;51.340;8.288;2022-12-28T07:48:39;3.05;;;1.90;;
9160;SDS011;4615;51.340;8.288;2022-12-28T07:51:09;1.92;;;1.52;;
9160;SDS011;4615;51.340;8.288;2022-12-28T07:53:37;1.98;;;1.60;;
9160;SDS011;4615;51.340;8.288;2022-12-28T07:56:04;2.70;;;1.90;;
9160;SDS011;4615;51.340;8.288;2022-12-28T07:58:30;1.98;;;1.77;;
9160;SDS011;4615;51.340;8.288;2022-12-28T08:01:06;2.53;;;1.77;;
9160;SDS011;4615;51.340;8.288;2022-12-28T08:03:33;2.35;;;1.70;;
9160;SDS011;4615;51.340;8.288;2022-12-28T08:06:04;2.40;;;1.77;;
9160;SDS011;4615;51.340;8.288;2022-12-28T08:08:34;2.70;;;1.70;;
9160;SDS011;4615;51.340;8.288;2022-12-28T08:11:01;2.03;;;1.73;;
9160;SDS011;4615;51.340;8.288;2022-12-28T08:13:29;2.03;;;1.77;;
9160;SDS011;4615;51.340;8.288;2022-12-28T08:15:56;1.90;;;1.65;;
9160;SDS011;4615;51.340;8.288;2022-12-28T08:18:22;2.47;;;1.73;;
9160;SDS011;4615;51.340;8.288;2022-12-28T08:20:48;2.60;;;1.80;;
9160;SDS011;4615;51.340;8.288;2022-12-28T08:23:15;2.78;;;1.98;;
9160;SDS011;4615;51.340;8.288;2022-12-28T08:25:42;2.00;;;1.70;;
9160;SDS011;4615;51.340;8.288;2022-12-28T08:28:11;2.60;;;1.70;;
9160;SDS011;4615;51.340;8.288;2022-12-28T08:30:37;2.30;;;1.70;;
9160;SDS011;4615;51.340;8.288;2022-12-28T08:33:03;2.15;;;1.58;;
9160;SDS011;4615;51.340;8.288;2022-12-28T08:35:30;2.78;;;1.70;;
9160;SDS011;4615;51.340;8.288;2022-12-28T08:37:56;2.50;;;1.70;;
9160;SDS011;4615;51.340;8.288;2022-12-28T08:40:23;2.60;;;1.67;;
9160;SDS011;4615;51.340;8.288;2022-12-28T08:42:56;2.20;;;1.70;;
9160;SDS011;4615;51.340;8.288;2022-12-28T08:45:22;2.50;;;1.63;;
9160;SDS011;4615;51.340;8.288;2022-12-28T08:47:48;1.85;;;1.65;;
9160;SDS011;4615;51.340;8.288;2022-12-28T08:50:15;1.73;;;1.30;;
9160;SDS011;4615;51.340;8.288;2022-12-28T08:52:41;2.03;;;1.58;;
9160;SDS011;4615;51.340;8.288;2022-12-28T08:55:08;2.45;;;1.50;;
9160;SDS011;4615;51.340;8.288;2022-12-28T08:57:34;2.05;;;1.50;;
9160;SDS011;4615;51.340;8.288;2022-12-28T09:00:03;1.50;;;1.40;;
9160;SDS011;4615;51.340;8.288;2022-12-28T09:02:30;1.70;;;1.50;;
9160;SDS011;4615;51.340;8.288;2022-12-28T09:04:56;2.25;;;1.50;;
9160;SDS011;4615;51.340;8.288;2022-12-28T09:07:23;2.05;;;1.40;;
9160;SDS011;4615;51.340;8.288;2022-12-28T09:09:49;1.65;;;1.40;;
9160;SDS011;4615;51.340;8.288;2022-12-28T09:12:15;2.27;;;1.50;;
9160;SDS011;4615;51.340;8.288;2022-12-28T09:14:42;2.35;;;1.40;;
9160;SDS011;4615;51.340;8.288;2022-12-28T09:17:09;1.50;;;1.40;;
9160;SDS011;4615;51.340;8.288;2022-12-28T09:19:36;1.80;;;1.60;;
9160;SDS011;4615;51.340;8.288;2022-12-28T09:22:02;1.50;;;1.40;;
9160;SDS011;4615;51.340;8.288;2022-12-28T09:24:28;2.33;;;1.50;;
9160;SDS011;4615;51.340;8.288;2022-12-28T09:26:55;2.47;;;1.30;;
9160;SDS011;4615;51.340;8.288;2022-12-28T09:29:21;2.70;;;1.67;;
9160;SDS011;4615;51.340;8.288;2022-12-28T09:31:48;2.10;;;1.45;;
9160;SDS011;4615;51.340;8.288;2022-12-28T09:34:15;2.17;;;1.50;;
9160;SDS011;4615;51.340;8.288;2022-12-28T09:36:42;1.60;;;1.27;;
9160;SDS011;4615;51.340;8.288;2022-12-28T09:39:10;2.10;;;1.40;;
9160;SDS011;4615;51.340;8.288;2022-12-28T09:41:38;2.40;;;1.30;;
9160;SDS011;4615;51.340;8.288;2022-12-28T09:44:08;2.45;;;1.50;;
9160;SDS011;4615;51.340;8.288;2022-12-28T09:46:43;1.40;;;1.30;;
9160;SDS011;4615;51.340;8.288;2022-12-28T09:49:14;1.48;;;1.38;;
9160;SDS011;4615;51.340;8.288;2022-12-28T09:51:42;1.73;;;1.30;;
9160;SDS011;4615;51.340;8.288;2022-12-28T09:54:12;1.90;;;1.40;;
9160;SDS011;4615;51.340;8.288;2022-12-28T09:56:38;1.95;;;1.50;;
9160;SDS011;4615;51.340;8.288;2022-12-28T09:59:06;1.65;;;1.23;;
9160;SDS011;4615;51.340;8.288;2022-12-28T10:01:33;1.52;;;1.33;;
9160;SDS011;4615;51.340;8.288;2022-12-28T10:04:00;1.50;;;1.40;;
9160;SDS011;4615;51.340;8.288;2022-12-28T10:06:28;1.65;;;1.42;;
9160;SDS011;4615;51.340;8.288;2022-12-28T10:08:57;1.58;;;1.48;;
9160;SDS011;4615;51.340;8.288;2022-12-28T10:11:25;1.80;;;1.40;;
9160;SDS011;4615;51.340;8.288;2022-12-28T10:13:54;1.60;;;1.30;;
9160;SDS011;4615;51.340;8.288;2022-12-28T10:16:21;1.58;;;1.30;;
9160;SDS011;4615;51.340;8.288;2022-12-28T10:18:48;1.48;;;1.30;;
9160;SDS011;4615;51.340;8.288;2022-12-28T10:21:15;1.90;;;1.30;;
9160;SDS011;4615;51.340;8.288;2022-12-28T10:23:43;2.60;;;1.35;;
9160;SDS011;4615;51.340;8.288;2022-12-28T10:26:13;2.40;;;1.50;;
9160;SDS011;4615;51.340;8.288;2022-12-28T10:28:43;1.40;;;1.30;;
9160;SDS011;4615;51.340;8.288;2022-12-28T10:31:10;1.60;;;1.30;;
9160;SDS011;4615;51.340;8.288;2022-12-28T10:33:37;1.35;;;1.20;;
9160;SDS011;4615;51.340;8.288;2022-12-28T10:36:04;1.83;;;1.23;;
9160;SDS011;4615;51.340;8.288;2022-12-28T10:38:31;2.13;;;1.30;;
9160;SDS011;4615;51.340;8.288;2022-12-28T10:40:58;1.90;;;1.40;;
9160;SDS011;4615;51.340;8.288;2022-12-28T10:43:28;2.67;;;1.70;;
9160;SDS011;4615;51.340;8.288;2022-12-28T10:45:55;1.35;;;1.25;;
9160;SDS011;4615;51.340;8.288;2022-12-28T10:48:25;1.33;;;1.10;;
9160;SDS011;4615;51.340;8.288;2022-12-28T10:50:53;1.48;;;1.17;;
9160;SDS011;4615;51.340;8.288;2022-12-28T10:53:24;1.42;;;1.20;;
9160;SDS011;4615;51.340;8.288;2022-12-28T10:55:59;2.22;;;1.27;;
9160;SDS011;4615;51.340;8.288;2022-12-28T10:58:29;1.30;;;1.20;;
9160;SDS011;4615;51.340;8.288;2022-12-28T11:00:57;1.50;;;1.40;;
9160;SDS011;4615;51.340;8.288;2022-12-28T11:03:24;1.63;;;1.30;;
9160;SDS011;4615;51.340;8.288;2022-12-28T11:06:03;2.05;;;1.27;;
9160;SDS011;4615;51.340;8.288;2022-12-28T11:08:32;1.98;;;1.48;;
9160;SDS011;4615;51.340;8.288;2022-12-28T11:10:58;2.25;;;1.40;;
9160;SDS011;4615;51.340;8.288;2022-12-28T11:13:25;2.28;;;1.38;;
9160;SDS011;4615;51.340;8.288;2022-12-28T11:15:52;1.77;;;1.33;;
9160;SDS011;4615;51.340;8.288;2022-12-28T11:18:19;1.80;;;1.30;;
9160;SDS011;4615;51.340;8.288;2022-12-28T11:20:46;1.58;;;1.20;;
9160;SDS011;4615;51.340;8.288;2022-12-28T11:23:13;2.65;;;1.30;;
9160;SDS011;4615;51.340;8.288;2022-12-28T11:25:40;1.25;;;1.15;;
9160;SDS011;4615;51.340;8.288;2022-12-28T11:28:10;1.58;;;1.27;;
9160;SDS011;4615;51.340;8.288;2022-12-28T11:30:37;1.95;;;1.40;;
9160;SDS011;4615;51.340;8.288;2022-12-28T11:33:05;1.73;;;1.40;;
9160;SDS011;4615;51.340;8.288;2022-12-28T11:35:34;1.70;;;1.40;;
9160;SDS011;4615;51.340;8.288;2022-12-28T11:38:05;1.80;;;1.30;;
9160;SDS011;4615;51.340;8.288;2022-12-28T11:40:45;1.70;;;1.23;;
9160;SDS011;4615;51.340;8.288;2022-12-28T11:45:53;2.07;;;1.33;;
9160;SDS011;4615;51.340;8.288;2022-12-28T11:48:46;1.70;;;1.30;;
9160;SDS011;4615;51.340;8.288;2022-12-28T11:51:14;1.67;;;1.40;;
9160;SDS011;4615;51.340;8.288;2022-12-28T11:56:25;1.87;;;1.50;;
9160;SDS011;4615;51.340;8.288;2022-12-28T11:59:02;1.50;;;1.35;;
9160;SDS011;4615;51.340;8.288;2022-12-28T12:01:45;2.25;;;1.60;;
9160;SDS011;4615;51.340;8.288;2022-12-28T12:04:17;2.22;;;1.60;;
9160;SDS011;4615;51.340;8.288;2022-12-28T12:09:39;2.08;;;1.67;;
9160;SDS011;4615;51.340;8.288;2022-12-28T12:14:49;2.55;;;1.58;;
9160;SDS011;4615;51.340;8.288;2022-12-28T12:17:20;2.17;;;1.60;;
9160;SDS011;4615;51.340;8.288;2022-12-28T12:19:49;2.90;;;1.70;;
9160;SDS011;4615;51.340;8.288;2022-12-28T12:22:18;2.65;;;1.60;;
9160;SDS011;4615;51.340;8.288;2022-12-28T12:24:47;2.75;;;2.00;;
9160;SDS011;4615;51.340;8.288;2022-12-28T12:27:14;2.90;;;1.80;;
9160;SDS011;4615;51.340;8.288;2022-12-28T12:29:42;2.83;;;1.90;;
9160;SDS011;4615;51.340;8.288;2022-12-28T12:32:12;2.72;;;2.00;;
9160;SDS011;4615;51.340;8.288;2022-12-28T12:34:41;2.70;;;1.90;;
9160;SDS011;4615;51.340;8.288;2022-12-28T12:37:23;4.22;;;2.08;;
9160;SDS011;4615;51.340;8.288;2022-12-28T12:40:06;3.17;;;2.15;;
9160;SDS011;4615;51.340;8.288;2022-12-28T12:42:40;3.22;;;1.90;;
9160;SDS011;4615;51.340;8.288;2022-12-28T12:45:12;2.53;;;1.90;;
9160;SDS011;4615;51.340;8.288;2022-12-28T12:47:46;3.08;;;1.90;;
9160;SDS011;4615;51.340;8.288;2022-12-28T12:50:24;2.70;;;2.00;;
9160;SDS011;4615;51.340;8.288;2022-12-28T12:53:02;3.03;;;1.80;;
9160;SDS011;4615;51.340;8.288;2022-12-28T12:55:34;3.40;;;2.00;;
9160;SDS011;4615;51.340;8.288;2022-12-28T12:58:04;3.25;;;2.08;;
9160;SDS011;4615;51.340;8.288;2022-12-28T13:00:31;3.45;;;2.38;;
9160;SDS011;4615;51.340;8.288;2022-12-28T13:03:14;3.72;;;2.25;;
9160;SDS011;4615;51.340;8.288;2022-12-28T13:05:43;4.05;;;2.17;;
9160;SDS011;4615;51.340;8.288;2022-12-28T13:08:14;2.28;;;1.90;;
9160;SDS011;4615;51.340;8.288;2022-12-28T13:10:44;4.47;;;2.20;;
9160;SDS011;4615;51.340;8.288;2022-12-28T13:13:14;3.80;;;2.10;;
9160;SDS011;4615;51.340;8.288;2022-12-28T13:15:43;3.38;;;2.03;;
9160;SDS011;4615;51.340;8.288;2022-12-28T13:18:14;4.07;;;2.20;;
9160;SDS011;4615;51.340;8.288;2022-12-28T13:20:48;2.73;;;1.87;;
9160;SDS011;4615;51.340;8.288;2022-12-28T13:23:18;4.13;;;2.00;;
9160;SDS011;4615;51.340;8.288;2022-12-28T13:25:46;2.70;;;2.00;;
9160;SDS011;4615;51.340;8.288;2022-12-28T13:28:17;4.00;;;2.10;;
9160;SDS011;4615;51.340;8.288;2022-12-28T13:30:53;3.63;;;2.10;;
9160;SDS011;4615;51.340;8.288;2022-12-28T13:33:20;2.90;;;2.10;;
9160;SDS011;4615;51.340;8.288;2022-12-28T13:35:48;3.28;;;2.25;;
9160;SDS011;4615;51.340;8.288;2022-12-28T13:38:15;2.83;;;2.05;;
9160;SDS011;4615;51.340;8.288;2022-12-28T13:40:49;3.08;;;1.90;;
9160;SDS011;4615;51.340;8.288;2022-12-28T13:43:25;2.77;;;1.83;;
9160;SDS011;4615;51.340;8.288;2022-12-28T13:45:58;3.15;;;2.40;;
9160;SDS011;4615;51.340;8.288;2022-12-28T13:48:26;2.58;;;1.80;;
9160;SDS011;4615;51.340;8.288;2022-12-28T13:50:53;5.32;;;2.63;;
9160;SDS011;4615;51.340;8.288;2022-12-28T13:53:20;3.47;;;1.90;;
9160;SDS011;4615;51.340;8.288;2022-12-28T13:55:50;3.42;;;1.90;;
9160;SDS011;4615;51.340;8.288;2022-12-28T13:58:17;3.33;;;2.00;;
9160;SDS011;4615;51.340;8.288;2022-12-28T14:00:46;4.32;;;2.58;;
9160;SDS011;4615;51.340;8.288;2022-12-28T14:03:13;4.00;;;1.92;;
9160;SDS011;4615;51.340;8.288;2022-12-28T14:05:40;3.38;;;2.00;;
9160;SDS011;4615;51.340;8.288;2022-12-28T14:08:07;3.87;;;2.10;;
9160;SDS011;4615;51.340;8.288;2022-12-28T14:10:33;3.58;;;2.00;;
9160;SDS011;4615;51.340;8.288;2022-12-28T14:13:02;2.50;;;1.93;;
9160;SDS011;4615;51.340;8.288;2022-12-28T14:15:29;3.67;;;1.90;;
9160;SDS011;4615;51.340;8.288;2022-12-28T14:17:56;3.05;;;1.85;;
9160;SDS011;4615;51.340;8.288;2022-12-28T14:20:22;3.55;;;2.50;;
9160;SDS011;4615;51.340;8.288;2022-12-28T14:22:49;2.87;;;1.90;;
9160;SDS011;4615;51.340;8.288;2022-12-28T14:25:16;2.53;;;1.70;;
9160;SDS011;4615;51.340;8.288;2022-12-28T14:27:43;4.57;;;2.03;;
9160;SDS011;4615;51.340;8.288;2022-12-28T14:30:21;3.75;;;2.20;;
9160;SDS011;4615;51.340;8.288;2022-12-28T14:32:48;4.22;;;2.00;;
9160;SDS011;4615;51.340;8.288;2022-12-28T14:35:16;3.80;;;1.88;;
9160;SDS011;4615;51.340;8.288;2022-12-28T14:37:43;3.95;;;1.90;;
9160;SDS011;4615;51.340;8.288;2022-12-28T14:40:15;3.20;;;1.83;;
9160;SDS011;4615;51.340;8.288;2022-12-28T14:42:46;3.47;;;1.95;;
9160;SDS011;4615;51.340;8.288;2022-12-28T14:45:22;4.33;;;2.00;;
9160;SDS011;4615;51.340;8.288;2022-12-28T14:47:52;3.87;;;1.70;;
9160;SDS011;4615;51.340;8.288;2022-12-28T14:50:20;2.97;;;1.83;;
9160;SDS011;4615;51.340;8.288;2022-12-28T14:52:48;3.17;;;1.70;;
9160;SDS011;4615;51.340;8.288;2022-12-28T14:55:19;2.58;;;1.83;;
9160;SDS011;4615;51.340;8.288;2022-12-28T14:57:47;4.30;;;1.95;;
9160;SDS011;4615;51.340;8.288;2022-12-28T15:00:23;3.10;;;1.70;;
9160;SDS011;4615;51.340;8.288;2022-12-28T15:02:50;3.63;;;2.10;;
9160;SDS011;4615;51.340;8.288;2022-12-28T15:05:36;2.72;;;1.90;;
9160;SDS011;4615;51.340;8.288;2022-12-28T15:08:02;3.55;;;2.10;;
9160;SDS011;4615;51.340;8.288;2022-12-28T15:10:29;2.92;;;1.92;;
9160;SDS011;4615;51.340;8.288;2022-12-28T15:12:57;3.05;;;1.95;;
9160;SDS011;4615;51.340;8.288;2022-12-28T15:15:25;3.58;;;1.85;;
9160;SDS011;4615;51.340;8.288;2022-12-28T15:17:51;3.40;;;1.90;;
9160;SDS011;4615;51.340;8.288;2022-12-28T15:20:18;2.95;;;1.80;;
9160;SDS011;4615;51.340;8.288;2022-12-28T15:22:46;2.55;;;1.95;;
9160;SDS011;4615;51.340;8.288;2022-12-28T15:25:13;4.10;;;2.00;;
9160;SDS011;4615;51.340;8.288;2022-12-28T15:27:39;3.57;;;2.30;;
9160;SDS011;4615;51.340;8.288;2022-12-28T15:30:06;4.70;;;2.90;;
9160;SDS011;4615;51.340;8.288;2022-12-28T15:32:34;5.22;;;2.42;;
9160;SDS011;4615;51.340;8.288;2022-12-28T15:35:01;4.32;;;2.75;;
9160;SDS011;4615;51.340;8.288;2022-12-28T15:37:28;3.70;;;2.20;;